Fabian Garcia SC Data

Date Time Air Temperature Relative Humidity Dewpoint Windchill Heat Index Wind Speed Wind Dir. Rain Solar Radiation Soil Temperature
2m 2m 3m 3m 10cm
US/Mountain F % F F F MPH deg in MJ/m^2 F
max avg avg
2021-07-22 00:05:00 75.5 41.4 50.4 75.5 75.5 2.1 3.1 2.0 182.2 154.6 0.00 0.0000162 87.3
2021-07-22 00:10:00 76.0 41.1 50.6 76.0 76.0 2.6 3.7 2.6 148.1 167.4 0.00 0.0000182 87.2
2021-07-22 00:15:00 76.3 39.6 49.9 76.3 76.3 4.6 6.3 2.8 156.9 147.1 0.00 0.0000061 87.1
2021-07-22 00:20:00 77.0 38.0 49.5 77.0 77.0 1.7 6.2 3.0 135.6 151.6 0.00 0.0000141 87.1
2021-07-22 00:25:00 77.5 37.5 49.5 77.5 77.5 1.9 4.4 2.8 124.4 140.4 0.00 0.0000101 87.0
2021-07-22 00:30:00 77.3 37.5 49.3 77.3 77.3 3.7 4.6 2.9 131.5 146.1 0.00 0.0000040 87.0
2021-07-22 00:35:00 77.5 37.9 49.8 77.5 77.5 3.3 5.1 3.2 159.5 152.7 0.00 0.0000141 86.9
2021-07-22 00:40:00 77.5 37.5 49.6 77.5 77.5 3.1 4.9 3.2 167.2 150.8 0.00 0.0000081 86.8
2021-07-22 00:45:00 77.1 37.6 49.2 77.1 77.1 2.8 6.3 3.2 170.1 157.0 0.00 0.0000040 86.7
2021-07-22 00:50:00 77.0 37.6 49.2 77.0 77.0 3.8 7.2 3.7 149.9 148.7 0.00 0.0000101 86.7
2021-07-22 00:55:00 77.1 37.2 49.0 77.1 77.1 3.8 4.4 3.1 107.5 132.6 0.00 0.0000061 86.6
2021-07-22 01:00:00 77.5 36.7 49.0 77.5 77.5 3.8 6.2 3.4 137.0 139.6 0.00 0.0000162 86.5
2021-07-22 01:05:00 77.7 37.0 49.4 77.7 77.7 2.1 6.0 3.4 176.9 148.3 0.00 0.0000040 86.5
2021-07-22 01:10:00 77.3 37.3 49.2 77.3 77.3 3.0 5.3 2.8 106.5 143.8 0.00 0.0000081 86.4
2021-07-22 01:15:00 77.1 37.1 48.9 77.1 77.1 4.7 4.9 2.7 133.5 143.8 0.00 0.0000141 86.3
2021-07-22 01:20:00 77.2 37.1 49.0 77.2 77.2 2.4 7.8 2.9 154.9 148.5 0.00 0.0000040 86.2
2021-07-22 01:25:00 77.4 37.1 49.2 77.4 77.4 4.0 5.1 3.1 123.8 141.4 0.00 0.0000081 86.2
2021-07-22 01:30:00 77.2 37.2 49.1 77.2 77.2 2.6 6.7 3.2 100.8 137.6 0.00 0.0000121 86.1
2021-07-22 01:35:00 76.9 37.4 49.0 76.9 76.9 2.6 5.1 2.7 132.9 140.8 0.00 0.0000202 86.0
2021-07-22 01:40:00 76.9 37.1 48.7 76.9 76.9 3.7 4.7 3.4 175.4 129.8 0.00 0.0000061 86.0
2021-07-22 01:45:00 77.4 36.1 48.4 77.4 77.4 3.7 6.5 4.5 96.1 120.2 0.00 0.0000081 85.9
2021-07-22 01:50:00 77.4 35.5 48.0 77.4 77.4 5.5 6.5 4.5 112.9 124.0 0.00 0.0000040 85.8
2021-07-22 01:55:00 78.2 34.5 47.9 78.2 78.2 4.6 10.5 6.2 137.5 116.6 0.00 0.0000020 85.8
2021-07-22 02:00:00 78.2 34.8 48.1 78.2 78.2 3.8 7.2 4.7 131.8 118.1 0.00 0.0000040 85.7
2021-07-22 02:05:00 78.0 35.3 48.4 78.0 78.0 3.5 7.2 4.1 115.7 122.8 0.00 0.0000020 85.7
2021-07-22 02:10:00 77.8 35.4 48.3 77.8 77.8 3.0 7.6 4.3 95.1 117.4 0.00 0.0000020 85.6
2021-07-22 02:15:00 77.7 35.4 48.2 77.7 77.7 2.6 7.4 3.6 158.5 124.1 0.00 0.0000040 85.6
2021-07-22 02:20:00 77.7 35.6 48.3 77.7 77.7 3.5 6.2 3.9 148.1 141.5 0.00 0.0000061 85.5
2021-07-22 02:25:00 77.3 36.2 48.4 77.3 77.3 1.9 6.5 3.4 165.9 154.5 0.00 0.0000040 85.4
2021-07-22 02:30:00 76.8 36.9 48.5 76.8 76.8 3.5 4.6 2.6 155.5 168.8 0.00 0.0000020 85.4
2021-07-22 02:35:00 76.5 37.1 48.3 76.5 76.5 4.2 5.5 3.1 196.3 161.8 0.00 0.0000040 85.3
2021-07-22 02:40:00 76.2 37.6 48.5 76.2 76.2 2.2 5.3 2.8 147.3 167.8 0.00 0.0000101 85.2
2021-07-22 02:45:00 75.6 39.0 48.9 75.6 75.6 4.4 5.5 3.0 173.1 188.1 0.00 0.0000081 85.2
2021-07-22 02:50:00 75.2 40.3 49.4 75.2 75.2 4.6 6.7 3.9 228.4 193.4 0.00 0.0000101 85.1
2021-07-22 02:55:00 74.1 42.2 49.7 74.1 74.1 2.1 4.2 2.7 176.9 209.7 0.00 0.0000081 85.1
2021-07-22 03:00:00 74.1 41.4 49.2 74.1 74.1 1.3 4.0 2.7 178.0 189.7 0.00 0.0000283 85.0
2021-07-22 03:05:00 73.8 42.0 49.2 73.8 73.8 2.8 3.3 2.4 216.3 200.4 0.00 0.0000202 85.0
2021-07-22 03:10:00 73.7 43.7 50.3 73.7 73.7 2.2 3.8 2.9 234.4 212.3 0.00 0.0000081 84.9
2021-07-22 03:15:00 72.5 46.4 50.8 72.5 72.5 3.1 3.7 2.7 228.3 232.0 0.00 0.0000020 84.9
2021-07-22 03:20:00 71.7 47.2 50.5 71.7 71.7 3.5 4.7 3.4 231.2 244.9 0.00 0.0000121 84.8
2021-07-22 03:25:00 71.5 47.0 50.3 71.5 71.5 2.4 3.5 2.7 220.7 225.6 0.00 0.0000081 84.7
2021-07-22 03:30:00 70.8 50.5 51.5 70.8 70.8 2.8 3.5 2.8 230.6 231.7 0.00 0.0000020 84.7
2021-07-22 03:35:00 70.3 51.6 51.6 70.3 70.3 3.0 4.0 3.3 234.9 228.7 0.00 0.0000020 84.6
2021-07-22 03:40:00 70.3 50.5 51.0 70.3 70.3 2.1 4.0 2.7 215.9 227.4 0.00 0.0000000 84.6
2021-07-22 03:45:00 70.4 49.3 50.5 70.4 70.4 3.0 3.7 2.7 212.5 218.2 0.00 0.0000000 84.5
2021-07-22 03:50:00 70.3 50.8 51.3 70.3 70.3 2.8 3.3 2.7 207.2 225.4 0.00 0.0000000 84.5
2021-07-22 03:55:00 69.9 51.6 51.3 69.9 69.9 2.4 4.0 3.1 209.4 222.8 0.00 0.0000000 84.4
2021-07-22 04:00:00 70.0 50.5 50.8 70.0 70.0 2.4 3.5 1.7 206.9 198.2 0.00 0.0000000 84.3
2021-07-22 04:05:00 70.2 51.0 51.2 70.2 70.2 3.0 3.3 2.7 225.6 218.4 0.00 0.0000000 84.3
2021-07-22 04:10:00 69.9 51.9 51.4 69.9 69.9 2.2 3.1 2.2 257.7 232.5 0.00 0.0000000 84.2
2021-07-22 04:15:00 69.6 52.1 51.3 69.6 69.6 2.6 2.6 2.1 258.5 259.9 0.00 0.0000000 84.2
2021-07-22 04:20:00 69.4 52.5 51.3 69.4 69.4 1.5 3.0 2.0 268.0 257.8 0.00 0.0000000 84.1
2021-07-22 04:25:00 69.0 54.3 51.8 69.0 69.0 2.6 2.8 2.1 244.0 255.4 0.00 0.0000000 84.1
2021-07-22 04:30:00 68.2 55.7 51.7 68.2 68.2 2.2 3.0 2.6 235.9 249.0 0.00 0.0000000 84.0
2021-07-22 04:35:00 67.9 55.7 51.5 67.9 67.9 0.0 2.2 1.1 189.0 228.4 0.00 0.0000000 83.9
2021-07-22 04:40:00 67.7 55.3 51.2 67.7 67.7 0.0 0.0 0.0 169.1 0.0 0.00 0.0000000 83.9
2021-07-22 04:45:00 68.0 55.8 51.6 68.0 68.0 1.7 1.7 0.8 230.0 236.4 0.00 0.0000000 83.8
2021-07-22 04:50:00 67.8 57.1 52.1 67.8 67.8 1.2 2.6 1.7 221.2 223.7 0.00 0.0000000 83.8
2021-07-22 04:55:00 67.4 57.2 51.7 67.4 67.4 2.4 2.6 1.6 229.4 225.4 0.00 0.0000000 83.8
2021-07-22 05:00:00 67.6 56.5 51.6 67.6 67.6 3.0 3.8 2.9 247.3 236.9 0.00 0.0000020 83.7
2021-07-22 05:05:00 67.6 56.1 51.4 67.6 67.6 3.7 5.3 3.7 227.1 237.2 0.00 0.0000020 83.6
2021-07-22 05:10:00 67.8 53.6 50.3 67.8 67.8 2.8 4.0 3.0 203.7 218.8 0.00 0.0000000 83.6
2021-07-22 05:15:00 68.4 52.6 50.4 68.4 68.4 3.5 4.9 2.9 212.5 229.3 0.00 0.0000000 83.5
2021-07-22 05:20:00 68.5 53.0 50.7 68.5 68.5 1.3 3.3 2.0 209.1 236.7 0.00 0.0000000 83.4
2021-07-22 05:25:00 68.5 52.5 50.5 68.5 68.5 1.0 1.7 0.4 100.0 134.6 0.00 0.0000000 83.4
2021-07-22 05:30:00 68.4 52.8 50.5 68.4 68.4 0.0 1.9 0.4 105.8 116.6 0.00 0.0000000 83.3
2021-07-22 05:35:00 68.6 53.5 51.1 68.6 68.6 0.0 2.2 0.6 187.5 105.3 0.00 0.0000000 83.3
2021-07-22 05:40:00 68.3 54.1 51.0 68.3 68.3 0.0 0.0 0.0 92.5 0.0 0.00 0.0000000 83.2
2021-07-22 05:45:00 68.1 54.5 51.0 68.1 68.1 2.8 2.8 1.5 76.3 62.2 0.00 0.0000000 83.2
2021-07-22 05:50:00 68.3 54.3 51.1 68.3 68.3 0.8 2.6 1.5 172.6 91.8 0.00 0.0000020 83.1
2021-07-22 05:55:00 67.4 59.0 52.6 67.4 67.4 2.4 2.4 1.7 228.9 218.0 0.00 0.0000162 83.1
2021-07-22 06:00:00 66.5 60.2 52.3 66.5 66.5 0.0 2.4 0.6 237.4 229.0 0.00 0.0000586 83.0
2021-07-22 06:05:00 66.3 59.9 52.0 66.3 66.3 0.0 0.0 0.0 238.3 0.0 0.00 0.0001495 83.0
2021-07-22 06:10:00 66.2 59.9 51.9 66.2 66.2 1.0 1.9 1.0 261.8 258.3 0.00 0.0003071 82.9
2021-07-22 06:15:00 66.3 60.9 52.4 66.3 66.3 0.0 0.8 0.1 232.5 259.0 0.00 0.0005274 82.9
2021-07-22 06:20:00 65.9 60.3 51.8 65.9 65.9 1.9 2.2 0.6 331.5 334.8 0.00 0.0008648 82.8
2021-07-22 06:25:00 65.6 61.8 52.1 65.6 65.6 3.5 3.7 2.1 212.6 252.5 0.00 0.0015801 82.8
2021-07-22 06:30:00 65.8 61.9 52.3 65.8 65.8 0.0 3.3 1.2 224.7 208.3 0.00 0.0027481 82.7
2021-07-22 06:35:00 65.4 62.3 52.2 65.4 65.4 1.5 2.8 1.6 266.0 242.6 0.00 0.0044900 82.7
2021-07-22 06:40:00 65.9 60.0 51.6 65.9 65.9 1.5 2.2 1.8 234.5 240.7 0.00 0.0067895 82.6
2021-07-22 06:45:00 66.2 60.9 52.3 66.2 66.2 0.8 1.3 0.5 231.1 215.5 0.00 0.0092547 82.5
2021-07-22 06:50:00 66.3 61.8 52.8 66.3 66.3 2.1 3.0 2.5 268.4 241.8 0.00 0.0115747 82.5
2021-07-22 06:55:00 66.7 57.9 51.4 66.7 66.7 1.9 2.8 2.2 0.9 344.7 0.00 0.0150542 82.4
2021-07-22 07:00:00 66.9 57.3 51.3 66.9 66.9 2.1 2.8 1.4 246.1 263.5 0.00 0.0179134 82.4
2021-07-22 07:05:00 68.2 55.3 51.6 68.2 68.2 0.0 2.1 0.4 325.7 264.2 0.00 0.0210534 82.4
2021-07-22 07:10:00 68.8 55.3 52.1 68.8 68.8 1.7 2.1 0.8 343.7 14.3 0.00 0.0242359 82.3
2021-07-22 07:15:00 70.1 51.3 51.4 70.1 70.1 2.4 3.0 2.0 41.7 36.1 0.00 0.0279218 82.3
2021-07-22 07:20:00 71.2 50.0 51.7 71.2 71.2 1.5 3.3 2.5 8.6 43.0 0.00 0.0323530 82.2
2021-07-22 07:25:00 71.5 53.2 53.6 71.5 71.5 0.0 1.5 0.5 221.4 263.7 0.00 0.0365488 82.2
2021-07-22 07:30:00 71.9 49.8 52.1 71.9 71.9 1.2 1.2 0.1 79.4 74.7 0.00 0.0415772 82.2
2021-07-22 07:35:00 72.9 46.9 51.5 72.9 72.9 1.7 2.6 1.7 19.8 31.7 0.00 0.0465675 82.1
2021-07-22 07:40:00 73.1 47.4 51.9 73.1 73.1 3.3 4.2 2.9 24.2 5.0 0.00 0.0493371 82.1
2021-07-22 07:45:00 73.5 46.6 51.7 73.5 73.5 4.2 5.1 3.8 17.7 5.0 0.00 0.0535914 82.1
2021-07-22 07:50:00 73.5 45.8 51.3 73.5 73.5 4.0 7.2 4.4 0.3 6.2 0.00 0.0574132 82.0
2021-07-22 07:55:00 73.6 45.8 51.5 73.6 73.6 3.8 5.3 3.7 29.8 3.6 0.00 0.0628794 82.0
2021-07-22 08:00:00 73.9 44.6 50.9 73.9 73.9 3.1 4.7 3.7 21.6 19.1 0.00 0.0679270 82.0
2021-07-22 08:05:00 74.5 44.0 51.1 74.5 74.5 3.5 5.5 3.9 11.5 352.3 0.00 0.0733301 82.0
2021-07-22 08:10:00 75.2 43.0 51.2 75.2 75.2 3.7 5.6 3.2 27.4 351.4 0.00 0.0780672 82.0
2021-07-22 08:15:00 75.1 42.5 50.8 75.1 75.1 4.4 4.9 3.3 331.6 6.1 0.00 0.0826634 82.0
2021-07-22 08:20:00 75.6 44.1 52.3 75.6 75.6 2.8 4.6 2.8 331.3 10.9 0.00 0.0883120 82.0
2021-07-22 08:25:00 76.2 41.2 50.9 76.2 76.2 2.6 4.2 3.4 319.2 347.9 0.00 0.0933187 81.9
2021-07-22 08:30:00 76.5 40.9 51.0 76.5 76.5 3.7 6.2 3.8 335.4 330.8 0.00 0.0980419 81.9
2021-07-22 08:35:00 76.8 41.5 51.6 76.8 76.8 3.7 4.0 2.9 16.8 0.4 0.00 0.1045090 81.9
2021-07-22 08:40:00 77.0 40.9 51.5 77.0 77.0 2.6 4.4 3.2 343.6 15.6 0.00 0.1094239 81.9
2021-07-22 08:45:00 77.5 40.3 51.5 77.5 77.5 3.7 4.7 3.5 27.2 4.7 0.00 0.1144086 81.9
2021-07-22 08:50:00 77.8 39.6 51.3 77.8 77.8 1.7 5.5 3.8 4.9 346.8 0.00 0.1186955 81.9
2021-07-22 08:55:00 78.8 38.6 51.5 78.8 78.8 3.8 3.8 2.5 51.8 26.6 0.00 0.1222358 81.9
2021-07-22 09:00:00 79.4 37.1 50.9 79.4 79.4 2.4 4.9 2.9 88.2 14.3 0.00 0.1235799 81.9
2021-07-22 09:05:00 79.4 35.7 49.8 79.4 79.4 0.8 3.0 1.4 50.5 74.1 0.00 0.1294011 81.9
2021-07-22 09:10:00 80.0 35.9 50.6 80.0 80.0 1.7 3.0 2.4 13.8 24.2 0.00 0.1378379 81.9
2021-07-22 09:15:00 80.9 34.6 50.4 80.9 80.9 0.8 2.2 1.7 33.8 72.3 0.00 0.1409679 82.0
2021-07-22 09:20:00 80.9 35.0 50.7 80.9 80.9 3.3 4.4 2.4 190.2 209.2 0.00 0.1511461 82.0
2021-07-22 09:25:00 81.5 34.9 51.2 81.5 81.5 2.4 4.4 2.8 112.5 161.3 0.00 0.1582551 82.0
2021-07-22 09:30:00 81.7 38.9 54.3 81.7 81.7 3.0 3.7 2.7 199.1 198.1 0.00 0.1706729 82.1
2021-07-22 09:35:00 82.1 34.7 51.5 82.1 82.1 4.4 6.3 3.3 149.3 151.9 0.00 0.1815473 82.1
2021-07-22 09:40:00 81.8 35.1 51.5 81.8 81.8 1.0 5.5 3.0 164.3 192.1 0.00 0.2049631 82.1
2021-07-22 09:45:00 82.4 33.7 51.0 82.4 82.4 1.7 4.9 3.2 251.2 182.7 0.00 0.1634563 82.2
2021-07-22 09:50:00 82.2 36.1 52.7 82.2 82.2 2.6 3.1 1.8 236.9 202.5 0.00 0.1116413 82.2
2021-07-22 09:55:00 82.5 33.7 51.1 82.5 82.5 1.5 5.8 3.1 148.0 168.8 0.00 0.1490283 82.3
2021-07-22 10:00:00 82.7 33.4 51.0 82.7 82.7 4.2 5.8 3.8 187.4 188.1 0.00 0.1230274 82.3
2021-07-22 10:05:00 82.7 33.4 51.0 82.7 82.7 4.6 6.5 3.9 208.2 184.8 0.00 0.1763203 82.4
2021-07-22 10:10:00 82.2 33.3 50.5 82.2 82.2 7.6 7.6 4.7 209.7 202.7 0.00 0.1989937 82.4
2021-07-22 10:15:00 83.4 33.7 51.8 83.4 83.4 4.7 6.5 4.6 200.2 165.6 0.00 0.1972253 82.5
2021-07-22 10:20:00 82.9 33.8 51.5 82.9 82.9 4.9 7.1 4.5 149.9 192.7 0.00 0.2043552 82.5
2021-07-22 10:25:00 84.6 30.9 50.6 84.6 84.6 4.6 6.9 3.7 154.7 142.5 0.00 0.1966662 82.6
2021-07-22 10:30:00 84.3 29.3 48.8 84.3 84.3 2.8 8.1 4.7 162.9 168.7 0.00 0.1939944 82.7
2021-07-22 10:35:00 84.0 29.4 48.7 84.0 84.0 4.0 11.3 5.0 135.4 160.8 0.00 0.1690362 82.8
2021-07-22 10:40:00 84.1 34.5 53.1 84.1 84.1 4.9 8.3 4.4 152.4 161.5 0.00 0.1651810 82.9
2021-07-22 10:45:00 83.7 30.8 49.7 83.7 83.7 5.6 9.4 4.8 97.8 172.6 0.00 0.1842732 82.9
2021-07-22 10:50:00 83.9 31.6 50.6 83.9 83.9 5.8 9.4 6.1 222.3 176.0 0.00 0.2249914 83.0
2021-07-22 10:55:00 85.1 31.5 51.5 85.1 85.1 4.6 6.9 4.7 206.2 181.2 0.00 0.2383485 83.1
2021-07-22 11:00:00 85.5 30.5 50.9 85.5 85.5 3.5 8.3 5.3 188.2 181.7 0.00 0.2553735 83.2
2021-07-22 11:05:00 85.6 29.4 50.1 85.6 85.6 3.7 9.9 5.6 92.8 172.7 0.00 0.2672765 83.2
2021-07-22 11:10:00 85.9 30.1 50.9 85.9 85.9 4.0 6.3 4.3 192.0 194.4 0.00 0.2807105 83.3
2021-07-22 11:15:00 87.2 27.6 49.7 87.2 87.2 5.8 5.8 3.6 129.9 154.6 0.00 0.2914230 83.4
2021-07-22 11:20:00 85.7 29.4 50.1 85.7 85.7 3.3 10.3 5.3 114.8 165.5 0.00 0.2194757 83.5
2021-07-22 11:25:00 85.3 30.1 50.4 85.3 85.3 3.7 8.3 4.0 219.9 172.7 0.00 0.1788547 83.6
2021-07-22 11:30:00 85.7 28.6 49.4 85.7 85.7 4.4 8.3 5.0 151.7 147.7 0.00 0.2313089 83.8
2021-07-22 11:35:00 85.9 29.6 50.6 85.9 85.9 5.5 8.0 4.5 183.6 179.4 0.00 0.2195450 83.9
2021-07-22 11:40:00 85.5 29.4 50.0 85.5 85.5 4.2 10.3 5.2 110.5 183.1 0.00 0.1668416 84.0
2021-07-22 11:45:00 85.1 29.8 50.0 85.1 85.1 4.9 8.1 5.8 161.2 190.7 0.00 0.2015098 84.1
2021-07-22 11:50:00 84.9 30.2 50.2 84.9 84.9 3.8 9.0 5.4 189.6 167.9 0.00 0.1341826 84.2
2021-07-22 11:55:00 84.8 30.5 50.4 84.8 84.8 3.8 8.3 4.6 130.6 174.9 0.00 0.1907815 84.3
2021-07-22 12:00:00 87.3 28.8 51.0 87.3 87.3 2.2 5.1 3.4 194.0 143.8 0.00 0.2156168 84.5
2021-07-22 12:05:00 87.4 28.4 50.6 87.4 87.4 1.9 7.4 3.9 65.4 148.6 0.00 0.2304474 84.6
2021-07-22 12:10:00 88.6 29.2 52.5 88.6 88.6 4.2 4.7 3.2 288.7 151.1 0.00 0.2907676 84.7
2021-07-22 12:15:00 86.9 28.0 49.9 86.9 86.9 5.3 9.0 5.2 98.4 144.3 0.00 0.1502067 84.8
2021-07-22 12:20:00 86.0 29.8 50.8 86.0 86.0 4.6 8.3 4.9 185.2 130.1 0.00 0.1412868 84.9
2021-07-22 12:25:00 85.9 30.8 51.5 85.9 85.9 3.3 6.9 3.6 218.9 180.9 0.00 0.1381053 85.0
2021-07-22 12:30:00 87.4 29.0 51.2 87.4 87.4 6.7 7.1 4.7 115.4 170.7 0.00 0.2378932 85.2
2021-07-22 12:35:00 88.2 29.3 52.2 88.2 88.2 4.2 7.8 4.2 104.0 144.4 0.00 0.2541246 85.3
2021-07-22 12:40:00 88.6 28.5 51.8 88.6 88.6 4.7 6.7 4.7 204.8 150.4 0.00 0.2211687 85.4
2021-07-22 12:45:00 87.7 29.5 51.9 87.7 87.7 4.4 6.7 4.3 100.6 132.2 0.00 0.1314738 85.5
2021-07-22 12:50:00 86.8 29.4 51.1 86.8 86.8 3.5 8.3 4.8 170.7 130.0 0.00 0.1227201 85.6
2021-07-22 12:55:00 87.7 29.8 52.2 87.7 87.7 3.0 4.9 3.2 132.4 182.5 0.00 0.1397851 85.7
2021-07-22 13:00:00 87.2 30.8 52.8 87.2 87.2 6.5 7.1 4.6 218.2 181.2 0.00 0.1446954 85.8
2021-07-22 13:05:00 87.2 29.5 51.6 87.2 87.2 4.0 6.5 4.6 191.3 184.7 0.00 0.1424980 85.9
2021-07-22 13:10:00 88.2 28.6 51.6 88.2 88.2 3.8 4.9 3.6 214.2 192.4 0.00 0.2389113 86.0
2021-07-22 13:15:00 89.0 27.6 51.3 89.0 89.0 3.0 5.3 3.4 245.2 178.7 0.00 0.2442139 86.1
2021-07-22 13:20:00 89.0 27.2 50.9 89.0 89.0 4.9 9.7 5.4 143.2 186.0 0.00 0.2336023 86.2
2021-07-22 13:25:00 89.1 27.7 51.5 89.1 89.1 3.1 4.0 2.7 200.0 198.7 0.00 0.1278226 86.3
2021-07-22 13:30:00 88.9 27.6 51.2 88.9 88.9 3.0 6.2 4.0 181.8 168.5 0.00 0.1777320 86.4
2021-07-22 13:35:00 90.0 26.6 51.2 90.0 90.0 5.1 5.5 4.1 141.6 131.6 0.00 0.3067575 86.5
2021-07-22 13:40:00 89.6 27.3 51.5 89.6 89.6 2.1 6.2 4.2 130.4 162.0 0.00 0.1417779 86.5
2021-07-22 13:45:00 90.0 28.1 52.6 90.0 90.0 6.0 6.0 3.1 206.7 141.4 0.00 0.1435201 86.6
2021-07-22 13:50:00 90.1 28.1 52.7 90.1 90.1 3.7 6.2 3.9 160.8 119.3 0.00 0.2454163 86.8
2021-07-22 13:55:00 90.4 28.0 52.9 90.4 90.4 6.9 7.1 4.3 164.3 177.0 0.00 0.2138644 86.8
2021-07-22 14:00:00 90.1 27.7 52.4 90.1 90.1 5.3 6.9 3.8 154.0 166.5 0.00 0.2346659 87.0
2021-07-22 14:05:00 90.6 24.1 49.0 90.6 90.6 4.9 8.5 5.3 145.2 172.7 0.00 0.2427672 87.0
2021-07-22 14:10:00 90.2 27.5 52.2 90.2 90.2 5.8 8.0 5.0 186.7 166.7 0.00 0.1346487 87.2
2021-07-22 14:15:00 89.9 27.8 52.2 89.9 89.9 4.7 6.7 4.6 160.7 189.6 0.00 0.1388326 87.3
2021-07-22 14:20:00 89.6 25.6 49.7 89.6 89.6 2.8 7.8 4.2 174.3 149.5 0.00 0.1277358 87.4
2021-07-22 14:25:00 89.8 27.7 52.1 89.8 89.8 3.1 6.0 3.6 182.8 194.3 0.00 0.1216588 87.4
2021-07-22 14:30:00 89.6 26.8 51.0 89.6 89.6 6.0 8.7 4.7 179.4 205.8 0.00 0.1906085 87.5
2021-07-22 14:35:00 91.1 24.0 49.3 91.1 91.1 6.0 7.1 4.3 212.4 179.5 0.00 0.2346683 87.6
2021-07-22 14:40:00 90.9 23.9 49.0 90.9 90.9 5.6 6.5 4.2 201.3 163.7 0.00 0.1684054 87.7
2021-07-22 14:45:00 90.9 23.4 48.4 90.9 90.9 7.2 7.2 4.1 151.6 192.1 0.00 0.1847203 87.8
2021-07-22 14:50:00 92.2 23.7 49.9 92.2 92.2 3.0 8.5 4.7 239.7 156.7 0.00 0.2292379 87.9
2021-07-22 14:55:00 91.5 23.2 48.7 91.5 91.5 4.6 8.8 5.6 200.7 198.8 0.00 0.2619895 88.0
2021-07-22 15:00:00 91.8 24.2 50.1 91.8 91.8 5.5 8.8 4.5 174.6 211.7 0.00 0.2525662 88.1
2021-07-22 15:05:00 92.0 23.7 49.7 92.0 92.0 4.9 7.2 5.6 210.8 176.8 0.00 0.2826322 88.2
2021-07-22 15:10:00 92.2 23.7 49.8 92.2 92.2 1.5 7.4 3.8 244.6 195.7 0.00 0.2765084 88.3
2021-07-22 15:15:00 92.2 23.8 49.9 92.2 92.2 7.2 8.7 5.6 213.1 209.4 0.00 0.2344174 88.4
2021-07-22 15:20:00 92.3 23.0 49.2 92.3 92.3 6.3 8.5 6.3 156.5 175.0 0.00 0.2507466 88.5
2021-07-22 15:25:00 92.9 23.2 50.0 92.9 92.9 3.3 9.6 4.7 159.0 167.0 0.00 0.2286707 88.6
2021-07-22 15:30:00 91.8 23.1 48.8 91.8 91.8 5.6 9.6 6.7 134.6 174.4 0.00 0.1487872 88.7
2021-07-22 15:35:00 91.8 23.5 49.4 91.8 91.8 2.8 8.3 4.8 69.3 170.7 0.00 0.1154416 88.8
2021-07-22 15:40:00 92.8 21.9 48.3 92.8 92.8 3.8 7.4 4.5 158.5 142.9 0.00 0.1880227 88.9
2021-07-22 15:45:00 93.1 22.4 49.1 93.1 93.1 5.8 8.3 5.2 156.6 170.3 0.00 0.2500266 89.0
2021-07-22 15:50:00 92.6 21.0 47.0 92.6 92.6 4.6 9.0 5.9 131.3 133.8 0.00 0.1624095 89.1
2021-07-22 15:55:00 92.3 21.7 47.6 92.3 92.3 3.5 8.1 5.2 128.9 118.2 0.00 0.1511233 89.2
2021-07-22 16:00:00 91.7 22.8 48.4 91.7 91.7 5.3 7.1 4.8 173.6 184.5 0.00 0.1036445 89.3
2021-07-22 16:05:00 91.5 21.9 47.2 91.5 91.5 7.2 7.2 4.3 154.3 175.7 0.00 0.1130589 89.4
2021-07-22 16:10:00 91.7 21.7 47.1 91.7 91.7 6.3 7.1 4.2 155.5 134.3 0.00 0.1273538 89.5
2021-07-22 16:15:00 92.0 21.2 46.8 92.0 92.0 4.4 8.0 4.8 126.5 143.9 0.00 0.1171888 89.6
2021-07-22 16:20:00 91.3 21.6 46.7 91.3 91.3 3.7 8.7 5.2 181.7 176.2 0.00 0.0845279 89.6
2021-07-22 16:25:00 91.2 21.2 46.1 91.2 91.2 5.5 6.7 4.9 156.8 165.8 0.00 0.0883859 89.7
2021-07-22 16:30:00 91.8 20.9 46.2 91.8 91.8 6.2 7.2 4.8 96.5 169.4 0.00 0.1772128 89.7
2021-07-22 16:35:00 92.9 22.6 49.2 92.9 92.9 8.0 8.3 5.4 109.5 156.5 0.00 0.2036760 89.8
2021-07-22 16:40:00 92.8 22.6 49.1 92.8 92.8 9.9 9.9 6.3 106.4 128.4 0.00 0.2046512 89.9
2021-07-22 16:45:00 91.7 22.7 48.3 91.7 91.7 5.8 9.7 6.4 106.0 126.5 0.00 0.1376302 89.9
2021-07-22 16:50:00 90.7 24.4 49.4 90.7 90.7 7.2 9.6 7.0 114.5 117.9 0.00 0.0959182 89.9
2021-07-22 16:55:00 91.3 25.2 50.8 91.3 91.3 4.7 6.7 4.9 129.1 127.8 0.00 0.1146810 90.0
2021-07-22 17:00:00 90.7 24.2 49.2 90.7 90.7 7.1 8.8 5.7 142.8 121.3 0.00 0.0763752 90.0
2021-07-22 17:05:00 90.8 24.7 49.9 90.8 90.8 6.0 8.1 5.2 152.0 143.5 0.00 0.0838241 90.0
2021-07-22 17:10:00 91.0 24.5 49.8 91.0 91.0 6.2 7.2 5.0 160.2 128.1 0.00 0.1160645 90.1
2021-07-22 17:15:00 91.5 25.0 50.8 91.5 91.5 4.9 7.6 5.5 122.0 116.8 0.00 0.1665198 90.1
2021-07-22 17:20:00 91.5 24.8 50.5 91.5 91.5 4.7 6.7 4.5 137.2 137.7 0.00 0.1330739 90.1
2021-07-22 17:25:00 91.4 24.0 49.6 91.4 91.4 5.5 8.3 5.7 145.8 133.6 0.00 0.1384869 90.2
2021-07-22 17:30:00 92.1 23.4 49.5 92.1 92.1 3.8 6.9 4.1 123.3 135.8 0.00 0.1455644 90.2
2021-07-22 17:35:00 92.1 24.3 50.5 92.1 92.1 3.7 6.7 4.0 164.9 132.2 0.00 0.0789523 90.2
2021-07-22 17:40:00 91.8 23.6 49.4 91.8 91.8 6.2 7.4 4.3 153.4 161.4 0.00 0.1220371 90.2
2021-07-22 17:45:00 92.2 22.7 48.7 92.2 92.2 5.3 6.5 4.1 167.7 161.7 0.00 0.1219360 90.3
2021-07-22 17:50:00 91.4 24.8 50.4 91.4 91.4 6.2 6.5 4.1 100.0 136.3 0.00 0.0612616 90.3
2021-07-22 17:55:00 91.5 24.9 50.6 91.5 91.5 4.7 8.0 4.8 149.7 126.7 0.00 0.1095032 90.3
2021-07-22 18:00:00 91.3 25.0 50.6 91.3 91.3 3.3 8.1 5.5 183.8 139.5 0.00 0.1409388 90.3
2021-07-22 18:05:00 92.1 24.6 50.8 92.1 92.1 3.5 8.8 5.0 197.6 132.5 0.00 0.1328277 90.3
2021-07-22 18:10:00 91.6 24.6 50.4 91.6 91.6 3.8 8.3 5.2 132.3 139.5 0.00 0.1020929 90.3
2021-07-22 18:15:00 91.8 24.7 50.6 91.8 91.8 3.1 6.7 3.8 141.7 133.7 0.00 0.0951522 90.3
2021-07-22 18:20:00 91.3 25.2 50.8 91.3 91.3 3.1 5.6 3.7 150.3 156.0 0.00 0.0579864 90.4
2021-07-22 18:25:00 90.9 25.0 50.3 90.9 90.9 4.6 7.1 3.9 139.6 136.1 0.00 0.0657597 90.4
2021-07-22 18:30:00 91.3 24.7 50.2 91.3 91.3 3.5 6.0 4.2 138.4 131.7 0.00 0.0917791 90.4
2021-07-22 18:35:00 91.4 24.1 49.7 91.4 91.4 5.6 6.9 4.5 105.0 129.0 0.00 0.0911493 90.4
2021-07-22 18:40:00 91.2 24.3 49.8 91.2 91.2 3.0 7.1 4.3 102.1 118.7 0.00 0.0859178 90.4
2021-07-22 18:45:00 91.0 25.5 50.8 91.0 91.0 4.7 7.2 4.8 127.5 137.6 0.00 0.0785311 90.4
2021-07-22 18:50:00 90.4 26.8 51.8 90.4 90.4 3.5 7.2 5.1 129.2 123.3 0.00 0.0796518 90.4
2021-07-22 18:55:00 90.6 25.8 50.8 90.6 90.6 4.7 6.3 4.5 121.6 126.3 0.00 0.0755673 90.4
2021-07-22 19:00:00 90.7 26.6 51.7 90.7 90.7 3.1 6.9 4.5 120.2 128.1 0.00 0.0714965 90.4
2021-07-22 19:05:00 91.1 26.0 51.5 91.1 91.1 4.2 5.1 3.5 142.1 145.5 0.00 0.0625629 90.4
2021-07-22 19:10:00 90.6 27.1 52.2 90.6 90.6 3.5 6.0 3.8 134.7 144.6 0.00 0.0437572 90.4
2021-07-22 19:15:00 90.3 27.9 52.6 90.3 90.3 3.3 5.1 3.3 119.7 151.5 0.00 0.0407204 90.4
2021-07-22 19:20:00 90.0 28.6 53.1 90.0 90.0 5.5 7.4 4.4 192.1 149.9 0.00 0.0327036 90.3
2021-07-22 19:25:00 88.9 29.6 53.1 88.9 88.9 1.7 5.5 3.4 69.3 136.5 0.00 0.0174411 90.3
2021-07-22 19:30:00 89.0 28.9 52.5 89.0 89.0 6.0 6.0 2.9 142.8 136.5 0.00 0.0201175 90.3
2021-07-22 19:35:00 88.7 29.7 53.0 88.7 88.7 3.3 5.6 3.5 78.5 132.8 0.00 0.0176287 90.3
2021-07-22 19:40:00 88.2 29.6 52.5 88.2 88.2 6.3 6.5 3.9 151.8 133.1 0.00 0.0133601 90.2
2021-07-22 19:45:00 87.4 30.2 52.3 87.4 87.4 4.4 5.6 3.8 114.9 132.6 0.00 0.0081515 90.2
2021-07-22 19:50:00 87.1 30.9 52.7 87.1 87.1 1.5 5.5 3.5 161.0 136.5 0.00 0.0071202 90.1
2021-07-22 19:55:00 86.6 31.3 52.7 86.6 86.6 1.2 4.6 2.7 95.4 134.2 0.00 0.0033926 90.1
2021-07-22 20:00:00 86.5 30.7 52.0 86.5 86.5 1.9 4.0 2.3 136.0 135.4 0.00 0.0014229 90.1
2021-07-22 20:05:00 86.1 30.3 51.3 86.1 86.1 2.4 4.7 2.7 160.4 139.4 0.00 0.0009506 90.0
2021-07-22 20:10:00 85.6 30.4 51.0 85.6 85.6 1.2 4.4 3.0 128.1 145.6 0.00 0.0006822 89.9
2021-07-22 20:15:00 85.4 30.6 51.0 85.4 85.4 1.5 3.7 2.1 147.0 149.8 0.00 0.0004582 89.9
2021-07-22 20:20:00 84.8 31.6 51.3 84.8 84.8 0.0 2.6 1.2 186.4 171.3 0.00 0.0002483 89.9
2021-07-22 20:25:00 84.5 31.6 51.0 84.5 84.5 1.9 2.1 1.4 202.0 197.5 0.00 0.0001151 89.8
2021-07-22 20:30:00 83.5 34.2 52.4 83.5 83.5 6.7 6.9 3.9 264.9 254.5 0.00 0.0000606 89.7
2021-07-22 20:35:00 83.9 31.8 50.7 83.9 83.9 6.5 7.2 5.5 194.6 245.9 0.00 0.0000384 89.6
2021-07-22 20:40:00 85.2 31.6 51.7 85.2 85.2 3.1 9.4 3.7 248.1 261.8 0.00 0.0000283 89.6
2021-07-22 20:45:00 85.4 32.1 52.2 85.4 85.4 1.2 3.7 2.4 183.6 261.5 0.00 0.0000404 89.5
2021-07-22 20:50:00 85.2 30.2 50.5 85.2 85.2 4.7 8.5 2.3 311.7 329.7 0.00 0.0000262 89.4
2021-07-22 20:55:00 86.6 29.2 50.7 86.6 86.6 4.2 8.1 5.4 342.6 356.2 0.00 0.0000343 89.4
2021-07-22 21:00:00 86.8 28.6 50.4 86.8 86.8 2.6 4.6 3.5 341.0 6.3 0.00 0.0000121 89.3
2021-07-22 21:05:00 86.3 29.7 51.0 86.3 86.3 2.8 2.8 1.7 1.0 15.0 0.00 0.0000081 89.2
2021-07-22 21:10:00 86.3 32.8 53.7 86.3 86.3 8.3 9.7 6.4 29.2 6.8 0.00 0.0000141 89.1
2021-07-22 21:15:00 84.9 36.6 55.5 84.9 84.9 6.9 13.7 8.1 22.9 19.3 0.00 0.0000081 89.0
2021-07-22 21:20:00 84.5 37.4 55.7 84.5 84.5 8.8 10.6 8.0 2.8 17.4 0.00 0.0000061 89.0
2021-07-22 21:25:00 84.3 37.8 55.9 84.3 84.3 6.9 12.1 8.6 2.1 1.4 0.00 0.0000081 88.9
2021-07-22 21:30:00 84.0 37.4 55.3 84.0 84.0 10.1 11.2 7.1 16.5 6.2 0.00 0.0000061 88.8
2021-07-22 21:35:00 83.7 37.1 54.8 83.7 83.7 6.3 13.3 8.0 19.6 1.4 0.00 0.0000121 88.7
2021-07-22 21:40:00 83.4 37.2 54.5 83.4 83.4 6.3 9.7 7.4 11.3 355.6 0.00 0.0000101 88.6
2021-07-22 21:45:00 83.3 37.3 54.5 83.3 83.3 4.4 10.8 7.4 4.3 353.9 0.00 0.0000061 88.6
2021-07-22 21:50:00 83.2 37.6 54.6 83.2 83.2 5.1 10.8 7.4 20.8 353.9 0.00 0.0000040 88.5
2021-07-22 21:55:00 82.7 38.1 54.6 82.7 82.7 7.2 8.5 6.7 11.1 1.8 0.00 0.0000040 88.4
2021-07-22 22:00:00 82.8 38.0 54.6 82.8 82.8 3.7 9.4 6.1 14.0 13.2 0.00 0.0000020 88.4
2021-07-22 22:05:00 82.7 38.1 54.6 82.7 82.7 6.9 9.2 6.9 20.0 8.9 0.00 0.0000000 88.3
2021-07-22 22:10:00 82.3 38.7 54.7 82.3 82.3 8.3 8.3 5.3 26.9 20.3 0.00 0.0000020 88.2
2021-07-22 22:15:00 82.0 38.9 54.5 82.0 82.0 6.0 10.3 7.4 38.5 29.8 0.00 0.0000020 88.1
2021-07-22 22:20:00 81.7 38.8 54.3 81.7 81.7 5.8 9.4 6.5 23.6 31.5 0.00 0.0000000 88.1
2021-07-22 22:25:00 81.7 38.8 54.3 81.7 81.7 4.2 9.6 6.4 45.7 39.0 0.00 0.0000000 88.0
2021-07-22 22:30:00 81.5 38.3 53.7 81.5 81.5 7.6 8.5 5.6 18.9 38.1 0.00 0.0000020 88.0
2021-07-22 22:35:00 81.4 38.6 53.8 81.4 81.4 5.3 8.3 5.6 4.8 32.3 0.00 0.0000000 87.9
2021-07-22 22:40:00 81.0 38.5 53.4 81.0 81.0 6.0 7.4 5.5 35.0 37.5 0.00 0.0000000 87.9
2021-07-22 22:45:00 81.2 38.3 53.5 81.2 81.2 5.3 9.6 6.0 45.2 38.0 0.00 0.0000000 87.8
2021-07-22 22:50:00 81.1 38.2 53.2 81.1 81.1 4.0 8.3 6.2 46.3 45.8 0.00 0.0000000 87.7
2021-07-22 22:55:00 80.9 38.5 53.3 80.9 80.9 5.5 6.9 4.8 46.4 31.1 0.00 0.0000000 87.6
2021-07-22 23:00:00 80.8 38.5 53.2 80.8 80.8 4.7 5.6 4.2 41.5 16.7 0.00 0.0000000 87.6
2021-07-22 23:05:00 80.9 38.2 53.1 80.9 80.9 6.3 7.6 5.4 29.8 32.3 0.00 0.0000000 87.5
2021-07-22 23:10:00 80.8 38.6 53.3 80.8 80.8 6.3 7.6 4.6 41.6 48.1 0.00 0.0000000 87.5
2021-07-22 23:15:00 80.6 38.8 53.3 80.6 80.6 3.5 7.6 4.8 27.2 36.4 0.00 0.0000000 87.4
2021-07-22 23:20:00 80.5 38.4 52.8 80.5 80.5 4.6 6.5 4.0 32.8 13.7 0.00 0.0000000 87.3
2021-07-22 23:25:00 80.5 38.6 53.0 80.5 80.5 5.5 5.8 4.5 30.2 356.8 0.00 0.0000000 87.3
2021-07-22 23:30:00 80.5 38.9 53.2 80.5 80.5 3.8 5.5 4.4 1.0 8.2 0.00 0.0000000 87.2
2021-07-22 23:35:00 80.3 38.8 53.0 80.3 80.3 5.8 5.8 4.3 0.1 6.1 0.00 0.0000000 87.1
2021-07-22 23:40:00 80.4 38.9 53.1 80.4 80.4 5.8 8.3 5.6 0.6 357.4 0.00 0.0000000 87.1
2021-07-22 23:45:00 80.3 39.0 53.2 80.3 80.3 5.8 6.3 5.3 338.3 357.9 0.00 0.0000000 87.0
2021-07-22 23:50:00 80.0 39.2 53.0 80.0 80.0 4.0 6.7 5.2 8.6 350.9 0.00 0.0000000 87.0
2021-07-22 23:55:00 80.2 39.1 53.1 80.2 80.2 5.6 6.5 5.0 335.6 334.7 0.00 0.0000000 86.9
2021-07-23 00:00:00 80.0 39.2 53.0 80.0 80.0 4.0 7.6 4.8 300.5 335.2 0.00 0.0000000 86.8

Data is courtesy of the NM Climate Center. DO NOT USE IN LEGAL PROCEEDINGS.